sensor_id;sensor_type;location;lat;lon;timestamp;temperature;humidity
6581;DHT22;3324;50.796;7.228;2023-02-07T00:00:38;2.00;99.90
6581;DHT22;3324;50.796;7.228;2023-02-07T00:03:03;2.00;99.90
6581;DHT22;3324;50.796;7.228;2023-02-07T00:05:29;2.00;99.90
6581;DHT22;3324;50.796;7.228;2023-02-07T00:07:55;2.00;99.90
6581;DHT22;3324;50.796;7.228;2023-02-07T00:10:21;2.10;99.90
6581;DHT22;3324;50.796;7.228;2023-02-07T00:12:47;2.10;99.90
6581;DHT22;3324;50.796;7.228;2023-02-07T00:15:12;2.20;99.90
6581;DHT22;3324;50.796;7.228;2023-02-07T00:17:38;2.00;99.90
6581;DHT22;3324;50.796;7.228;2023-02-07T00:20:05;2.00;99.90
6581;DHT22;3324;50.796;7.228;2023-02-07T00:22:31;1.90;99.90
6581;DHT22;3324;50.796;7.228;2023-02-07T00:24:57;2.10;99.90
6581;DHT22;3324;50.796;7.228;2023-02-07T00:27:22;2.00;99.90
6581;DHT22;3324;50.796;7.228;2023-02-07T00:29:48;2.00;99.90
6581;DHT22;3324;50.796;7.228;2023-02-07T00:32:14;2.00;99.90
6581;DHT22;3324;50.796;7.228;2023-02-07T00:34:39;1.90;99.90
6581;DHT22;3324;50.796;7.228;2023-02-07T00:37:05;1.90;99.90
6581;DHT22;3324;50.796;7.228;2023-02-07T00:39:31;1.90;99.90
6581;DHT22;3324;50.796;7.228;2023-02-07T00:41:57;2.10;99.90
6581;DHT22;3324;50.796;7.228;2023-02-07T00:44:23;2.20;99.90
6581;DHT22;3324;50.796;7.228;2023-02-07T00:46:48;2.10;99.90
6581;DHT22;3324;50.796;7.228;2023-02-07T00:49:14;2.00;99.90
6581;DHT22;3324;50.796;7.228;2023-02-07T00:51:40;2.10;99.90
6581;DHT22;3324;50.796;7.228;2023-02-07T00:54:05;2.10;99.90
6581;DHT22;3324;50.796;7.228;2023-02-07T00:56:32;2.10;99.90
6581;DHT22;3324;50.796;7.228;2023-02-07T00:58:58;2.10;99.90
6581;DHT22;3324;50.796;7.228;2023-02-07T01:01:23;2.10;99.90
6581;DHT22;3324;50.796;7.228;2023-02-07T01:03:50;2.10;99.90
6581;DHT22;3324;50.796;7.228;2023-02-07T01:06:16;2.10;99.90
6581;DHT22;3324;50.796;7.228;2023-02-07T01:08:42;2.10;99.90
6581;DHT22;3324;50.796;7.228;2023-02-07T01:11:10;2.10;99.90
6581;DHT22;3324;50.796;7.228;2023-02-07T01:13:37;2.10;99.90
6581;DHT22;3324;50.796;7.228;2023-02-07T01:16:03;2.00;99.90
6581;DHT22;3324;50.796;7.228;2023-02-07T01:18:29;2.10;99.90
6581;DHT22;3324;50.796;7.228;2023-02-07T01:20:55;2.10;99.90
6581;DHT22;3324;50.796;7.228;2023-02-07T01:23:21;2.10;99.90
6581;DHT22;3324;50.796;7.228;2023-02-07T01:25:46;2.10;99.90
6581;DHT22;3324;50.796;7.228;2023-02-07T01:28:13;2.00;99.90
6581;DHT22;3324;50.796;7.228;2023-02-07T01:30:43;2.00;99.90
6581;DHT22;3324;50.796;7.228;2023-02-07T01:33:09;1.90;99.90
6581;DHT22;3324;50.796;7.228;2023-02-07T01:35:36;1.80;99.90
6581;DHT22;3324;50.796;7.228;2023-02-07T01:38:02;1.70;99.90
6581;DHT22;3324;50.796;7.228;2023-02-07T01:40:28;1.60;99.90
6581;DHT22;3324;50.796;7.228;2023-02-07T01:42:54;1.50;99.90
6581;DHT22;3324;50.796;7.228;2023-02-07T01:45:31;1.50;99.90
6581;DHT22;3324;50.796;7.228;2023-02-07T01:48:02;1.50;99.90
6581;DHT22;3324;50.796;7.228;2023-02-07T01:50:29;1.60;99.90
6581;DHT22;3324;50.796;7.228;2023-02-07T01:52:57;1.50;99.90
6581;DHT22;3324;50.796;7.228;2023-02-07T01:55:27;1.50;99.90
6581;DHT22;3324;50.796;7.228;2023-02-07T01:57:54;1.50;99.90
6581;DHT22;3324;50.796;7.228;2023-02-07T02:00:20;1.50;99.90
6581;DHT22;3324;50.796;7.228;2023-02-07T02:02:46;1.40;99.90
6581;DHT22;3324;50.796;7.228;2023-02-07T02:05:12;1.40;99.90
6581;DHT22;3324;50.796;7.228;2023-02-07T02:07:39;1.40;99.90
6581;DHT22;3324;50.796;7.228;2023-02-07T02:10:16;1.40;99.90
6581;DHT22;3324;50.796;7.228;2023-02-07T02:15:59;1.40;99.90
6581;DHT22;3324;50.796;7.228;2023-02-07T02:21:36;1.30;99.90
6581;DHT22;3324;50.796;7.228;2023-02-07T02:36:15;1.30;99.90
6581;DHT22;3324;50.796;7.228;2023-02-07T02:41:32;1.30;99.90
6581;DHT22;3324;50.796;7.228;2023-02-07T02:44:06;1.30;99.90
6581;DHT22;3324;50.796;7.228;2023-02-07T02:46:36;1.30;99.90
6581;DHT22;3324;50.796;7.228;2023-02-07T02:49:04;1.20;99.90
6581;DHT22;3324;50.796;7.228;2023-02-07T02:51:31;1.30;99.90
6581;DHT22;3324;50.796;7.228;2023-02-07T02:53:58;1.30;99.90
6581;DHT22;3324;50.796;7.228;2023-02-07T02:59:27;1.40;99.90
6581;DHT22;3324;50.796;7.228;2023-02-07T03:10:40;1.30;99.90
6581;DHT22;3324;50.796;7.228;2023-02-07T03:13:32;1.40;99.90
6581;DHT22;3324;50.796;7.228;2023-02-07T03:23:46;1.50;99.90
6581;DHT22;3324;50.796;7.228;2023-02-07T03:26:13;1.60;99.90
6581;DHT22;3324;50.796;7.228;2023-02-07T03:28:40;1.50;99.90
6581;DHT22;3324;50.796;7.228;2023-02-07T03:31:08;1.50;99.90
6581;DHT22;3324;50.796;7.228;2023-02-07T03:33:36;1.50;99.90
6581;DHT22;3324;50.796;7.228;2023-02-07T03:38:40;1.60;99.90
6581;DHT22;3324;50.796;7.228;2023-02-07T03:41:10;1.60;99.90
6581;DHT22;3324;50.796;7.228;2023-02-07T03:43:39;1.60;99.90
6581;DHT22;3324;50.796;7.228;2023-02-07T03:46:08;1.50;99.90
6581;DHT22;3324;50.796;7.228;2023-02-07T03:48:34;1.50;99.90
6581;DHT22;3324;50.796;7.228;2023-02-07T03:50:59;1.50;99.90
6581;DHT22;3324;50.796;7.228;2023-02-07T03:53:25;1.50;99.90
6581;DHT22;3324;50.796;7.228;2023-02-07T03:55:51;1.50;99.90
6581;DHT22;3324;50.796;7.228;2023-02-07T03:58:17;1.40;99.90
6581;DHT22;3324;50.796;7.228;2023-02-07T04:00:43;1.30;99.90
6581;DHT22;3324;50.796;7.228;2023-02-07T04:03:09;1.30;99.90
6581;DHT22;3324;50.796;7.228;2023-02-07T04:05:35;1.20;99.90
6581;DHT22;3324;50.796;7.228;2023-02-07T04:08:00;1.20;99.90
6581;DHT22;3324;50.796;7.228;2023-02-07T04:10:26;1.10;99.90
6581;DHT22;3324;50.796;7.228;2023-02-07T04:12:51;1.10;99.90
6581;DHT22;3324;50.796;7.228;2023-02-07T04:15:17;1.10;99.90
6581;DHT22;3324;50.796;7.228;2023-02-07T04:17:43;1.10;99.90
6581;DHT22;3324;50.796;7.228;2023-02-07T04:20:12;1.00;99.90
6581;DHT22;3324;50.796;7.228;2023-02-07T04:22:38;1.00;99.90
6581;DHT22;3324;50.796;7.228;2023-02-07T04:25:04;1.00;99.90
6581;DHT22;3324;50.796;7.228;2023-02-07T04:27:29;1.10;99.90
6581;DHT22;3324;50.796;7.228;2023-02-07T04:29:55;1.10;99.90
6581;DHT22;3324;50.796;7.228;2023-02-07T04:32:21;1.10;99.90
6581;DHT22;3324;50.796;7.228;2023-02-07T04:34:46;1.10;99.90
6581;DHT22;3324;50.796;7.228;2023-02-07T04:37:12;1.10;99.90
6581;DHT22;3324;50.796;7.228;2023-02-07T04:39:38;1.10;99.90
6581;DHT22;3324;50.796;7.228;2023-02-07T04:42:04;1.10;99.90
6581;DHT22;3324;50.796;7.228;2023-02-07T04:44:29;1.10;99.90
6581;DHT22;3324;50.796;7.228;2023-02-07T04:46:55;1.00;99.90
6581;DHT22;3324;50.796;7.228;2023-02-07T04:49:21;1.00;99.90
6581;DHT22;3324;50.796;7.228;2023-02-07T04:51:46;1.00;99.90
6581;DHT22;3324;50.796;7.228;2023-02-07T04:54:12;1.00;99.90
6581;DHT22;3324;50.796;7.228;2023-02-07T04:56:37;0.90;99.90
6581;DHT22;3324;50.796;7.228;2023-02-07T04:59:03;0.90;99.90
6581;DHT22;3324;50.796;7.228;2023-02-07T05:01:28;0.90;99.90
6581;DHT22;3324;50.796;7.228;2023-02-07T05:03:54;0.80;99.90
6581;DHT22;3324;50.796;7.228;2023-02-07T05:06:20;0.80;99.90
6581;DHT22;3324;50.796;7.228;2023-02-07T05:08:45;0.80;99.90
6581;DHT22;3324;50.796;7.228;2023-02-07T05:11:11;0.70;99.90
6581;DHT22;3324;50.796;7.228;2023-02-07T05:13:36;0.60;99.90
6581;DHT22;3324;50.796;7.228;2023-02-07T05:16:02;0.60;99.90
6581;DHT22;3324;50.796;7.228;2023-02-07T05:18:28;0.60;99.90
6581;DHT22;3324;50.796;7.228;2023-02-07T05:20:54;0.60;99.90
6581;DHT22;3324;50.796;7.228;2023-02-07T05:23:20;0.60;99.90
6581;DHT22;3324;50.796;7.228;2023-02-07T05:25:47;0.70;99.90
6581;DHT22;3324;50.796;7.228;2023-02-07T05:28:13;0.70;99.90
6581;DHT22;3324;50.796;7.228;2023-02-07T05:30:39;0.80;99.90
6581;DHT22;3324;50.796;7.228;2023-02-07T05:33:04;0.70;99.90
6581;DHT22;3324;50.796;7.228;2023-02-07T05:35:35;0.70;99.90
6581;DHT22;3324;50.796;7.228;2023-02-07T05:38:01;0.70;99.90
6581;DHT22;3324;50.796;7.228;2023-02-07T05:40:30;0.70;99.90
6581;DHT22;3324;50.796;7.228;2023-02-07T05:42:55;0.60;99.90
6581;DHT22;3324;50.796;7.228;2023-02-07T05:45:21;0.50;99.90
6581;DHT22;3324;50.796;7.228;2023-02-07T05:47:47;0.40;99.90
6581;DHT22;3324;50.796;7.228;2023-02-07T05:50:13;0.40;99.90
6581;DHT22;3324;50.796;7.228;2023-02-07T05:52:38;0.30;99.90
6581;DHT22;3324;50.796;7.228;2023-02-07T05:55:04;0.30;99.90
6581;DHT22;3324;50.796;7.228;2023-02-07T05:57:30;0.30;99.90
6581;DHT22;3324;50.796;7.228;2023-02-07T05:59:56;0.30;99.90
6581;DHT22;3324;50.796;7.228;2023-02-07T06:02:21;0.30;99.90
6581;DHT22;3324;50.796;7.228;2023-02-07T06:04:47;0.30;99.90
6581;DHT22;3324;50.796;7.228;2023-02-07T06:07:13;0.30;99.90
6581;DHT22;3324;50.796;7.228;2023-02-07T06:09:38;0.30;99.90
6581;DHT22;3324;50.796;7.228;2023-02-07T06:12:04;0.30;99.90
6581;DHT22;3324;50.796;7.228;2023-02-07T06:14:32;0.30;99.90
6581;DHT22;3324;50.796;7.228;2023-02-07T06:16:57;0.20;99.90
6581;DHT22;3324;50.796;7.228;2023-02-07T06:19:23;0.20;99.90
6581;DHT22;3324;50.796;7.228;2023-02-07T06:21:48;0.20;99.90
6581;DHT22;3324;50.796;7.228;2023-02-07T06:24:15;0.10;99.90
6581;DHT22;3324;50.796;7.228;2023-02-07T06:26:41;0.20;99.90
6581;DHT22;3324;50.796;7.228;2023-02-07T06:29:07;0.10;99.90
6581;DHT22;3324;50.796;7.228;2023-02-07T06:31:32;0.10;99.90
6581;DHT22;3324;50.796;7.228;2023-02-07T06:33:58;0.10;99.90
6581;DHT22;3324;50.796;7.228;2023-02-07T06:36:23;0.30;99.90
6581;DHT22;3324;50.796;7.228;2023-02-07T06:38:49;0.40;99.90
6581;DHT22;3324;50.796;7.228;2023-02-07T06:41:18;0.40;99.90
6581;DHT22;3324;50.796;7.228;2023-02-07T06:43:44;0.40;99.90
6581;DHT22;3324;50.796;7.228;2023-02-07T06:46:10;0.50;99.90
6581;DHT22;3324;50.796;7.228;2023-02-07T06:48:35;0.50;99.90
6581;DHT22;3324;50.796;7.228;2023-02-07T06:51:01;0.40;99.90
6581;DHT22;3324;50.796;7.228;2023-02-07T06:53:26;0.40;99.90
6581;DHT22;3324;50.796;7.228;2023-02-07T06:55:54;0.40;99.90
6581;DHT22;3324;50.796;7.228;2023-02-07T06:58:19;0.30;99.90
6581;DHT22;3324;50.796;7.228;2023-02-07T07:00:45;0.50;99.90
6581;DHT22;3324;50.796;7.228;2023-02-07T07:03:13;0.50;99.90
6581;DHT22;3324;50.796;7.228;2023-02-07T07:05:39;0.40;99.90
6581;DHT22;3324;50.796;7.228;2023-02-07T07:08:06;0.30;99.90
6581;DHT22;3324;50.796;7.228;2023-02-07T07:10:31;0.30;99.90
6581;DHT22;3324;50.796;7.228;2023-02-07T07:12:57;0.20;99.90
6581;DHT22;3324;50.796;7.228;2023-02-07T07:15:22;0.20;99.90
6581;DHT22;3324;50.796;7.228;2023-02-07T07:17:48;0.20;99.90
6581;DHT22;3324;50.796;7.228;2023-02-07T07:20:14;0.30;99.90
6581;DHT22;3324;50.796;7.228;2023-02-07T07:22:40;0.20;99.90
6581;DHT22;3324;50.796;7.228;2023-02-07T07:25:05;0.30;99.90
6581;DHT22;3324;50.796;7.228;2023-02-07T07:27:31;0.20;99.90
6581;DHT22;3324;50.796;7.228;2023-02-07T07:29:57;0.30;99.90
6581;DHT22;3324;50.796;7.228;2023-02-07T07:32:22;0.30;99.90
6581;DHT22;3324;50.796;7.228;2023-02-07T07:34:48;0.30;99.90
6581;DHT22;3324;50.796;7.228;2023-02-07T07:37:14;0.40;99.90
6581;DHT22;3324;50.796;7.228;2023-02-07T07:39:40;0.40;99.90
6581;DHT22;3324;50.796;7.228;2023-02-07T07:42:05;0.50;99.90
6581;DHT22;3324;50.796;7.228;2023-02-07T07:44:31;0.50;99.90
6581;DHT22;3324;50.796;7.228;2023-02-07T07:46:57;0.50;99.90
6581;DHT22;3324;50.796;7.228;2023-02-07T07:49:22;0.40;99.90
6581;DHT22;3324;50.796;7.228;2023-02-07T07:51:48;0.40;99.90
6581;DHT22;3324;50.796;7.228;2023-02-07T07:54:14;0.40;99.90
6581;DHT22;3324;50.796;7.228;2023-02-07T07:56:40;0.50;99.90
6581;DHT22;3324;50.796;7.228;2023-02-07T07:59:06;0.50;99.90
6581;DHT22;3324;50.796;7.228;2023-02-07T08:01:31;0.50;99.90
6581;DHT22;3324;50.796;7.228;2023-02-07T08:03:57;0.40;99.90
6581;DHT22;3324;50.796;7.228;2023-02-07T08:06:22;0.50;99.90
6581;DHT22;3324;50.796;7.228;2023-02-07T08:08:48;0.40;99.90
6581;DHT22;3324;50.796;7.228;2023-02-07T08:11:14;0.40;99.90
6581;DHT22;3324;50.796;7.228;2023-02-07T08:13:39;0.60;99.90
6581;DHT22;3324;50.796;7.228;2023-02-07T08:16:06;0.70;99.90
6581;DHT22;3324;50.796;7.228;2023-02-07T08:18:35;0.70;99.90
6581;DHT22;3324;50.796;7.228;2023-02-07T08:21:01;0.80;99.90
6581;DHT22;3324;50.796;7.228;2023-02-07T08:23:27;0.80;99.90
6581;DHT22;3324;50.796;7.228;2023-02-07T08:25:52;0.90;99.90
6581;DHT22;3324;50.796;7.228;2023-02-07T08:28:18;0.90;99.90
6581;DHT22;3324;50.796;7.228;2023-02-07T08:30:44;1.00;99.90
6581;DHT22;3324;50.796;7.228;2023-02-07T08:33:14;0.90;99.90
6581;DHT22;3324;50.796;7.228;2023-02-07T08:35:40;0.90;99.90
6581;DHT22;3324;50.796;7.228;2023-02-07T08:38:06;0.90;99.90
6581;DHT22;3324;50.796;7.228;2023-02-07T08:40:33;1.00;99.90
6581;DHT22;3324;50.796;7.228;2023-02-07T08:42:58;1.20;99.90
6581;DHT22;3324;50.796;7.228;2023-02-07T08:45:24;1.30;99.90
6581;DHT22;3324;50.796;7.228;2023-02-07T08:47:50;1.40;99.90
6581;DHT22;3324;50.796;7.228;2023-02-07T08:50:17;1.40;99.90
6581;DHT22;3324;50.796;7.228;2023-02-07T08:52:43;1.50;99.90
6581;DHT22;3324;50.796;7.228;2023-02-07T08:55:10;1.60;99.90
6581;DHT22;3324;50.796;7.228;2023-02-07T08:57:37;1.70;99.90
6581;DHT22;3324;50.796;7.228;2023-02-07T09:00:07;1.70;99.90
6581;DHT22;3324;50.796;7.228;2023-02-07T09:02:32;1.80;99.90
6581;DHT22;3324;50.796;7.228;2023-02-07T09:04:58;1.90;99.90
6581;DHT22;3324;50.796;7.228;2023-02-07T09:07:23;1.90;99.90
6581;DHT22;3324;50.796;7.228;2023-02-07T09:09:49;2.10;99.90
6581;DHT22;3324;50.796;7.228;2023-02-07T09:12:15;2.10;99.90
6581;DHT22;3324;50.796;7.228;2023-02-07T09:14:40;2.20;99.90
6581;DHT22;3324;50.796;7.228;2023-02-07T09:17:06;2.20;99.90
6581;DHT22;3324;50.796;7.228;2023-02-07T09:19:33;2.30;99.90
6581;DHT22;3324;50.796;7.228;2023-02-07T09:21:59;2.40;99.90
6581;DHT22;3324;50.796;7.228;2023-02-07T09:24:24;2.50;99.90
6581;DHT22;3324;50.796;7.228;2023-02-07T09:26:50;2.50;99.90
6581;DHT22;3324;50.796;7.228;2023-02-07T09:29:16;2.60;99.90
6581;DHT22;3324;50.796;7.228;2023-02-07T09:31:42;2.70;99.90
6581;DHT22;3324;50.796;7.228;2023-02-07T09:34:08;2.70;99.90
6581;DHT22;3324;50.796;7.228;2023-02-07T09:36:34;2.80;99.90
6581;DHT22;3324;50.796;7.228;2023-02-07T09:38:59;2.90;99.90
6581;DHT22;3324;50.796;7.228;2023-02-07T09:44:41;2.90;99.90
6581;DHT22;3324;50.796;7.228;2023-02-07T09:47:17;3.00;99.90
6581;DHT22;3324;50.796;7.228;2023-02-07T09:49:50;3.20;99.90
6581;DHT22;3324;50.796;7.228;2023-02-07T09:52:39;3.40;99.90
6581;DHT22;3324;50.796;7.228;2023-02-07T09:55:20;3.50;99.90
6581;DHT22;3324;50.796;7.228;2023-02-07T09:57:51;3.50;99.90
6581;DHT22;3324;50.796;7.228;2023-02-07T10:00:29;3.70;99.90
6581;DHT22;3324;50.796;7.228;2023-02-07T10:05:47;4.00;99.90
6581;DHT22;3324;50.796;7.228;2023-02-07T10:08:18;4.10;99.90
6581;DHT22;3324;50.796;7.228;2023-02-07T10:10:53;4.10;99.90
6581;DHT22;3324;50.796;7.228;2023-02-07T10:22:32;4.20;99.90
6581;DHT22;3324;50.796;7.228;2023-02-07T10:27:44;4.20;99.90
6581;DHT22;3324;50.796;7.228;2023-02-07T10:30:22;4.20;99.90
6581;DHT22;3324;50.796;7.228;2023-02-07T10:32:50;4.20;99.90
6581;DHT22;3324;50.796;7.228;2023-02-07T10:35:21;4.20;99.90
6581;DHT22;3324;50.796;7.228;2023-02-07T10:37:50;4.30;99.90
6581;DHT22;3324;50.796;7.228;2023-02-07T10:40:25;4.30;99.90
6581;DHT22;3324;50.796;7.228;2023-02-07T10:42:57;4.40;99.90
6581;DHT22;3324;50.796;7.228;2023-02-07T10:45:24;4.50;99.90
6581;DHT22;3324;50.796;7.228;2023-02-07T10:47:50;4.40;99.90
6581;DHT22;3324;50.796;7.228;2023-02-07T10:50:19;4.40;99.90
6581;DHT22;3324;50.796;7.228;2023-02-07T10:52:52;4.40;99.90
6581;DHT22;3324;50.796;7.228;2023-02-07T10:55:34;4.40;99.90
6581;DHT22;3324;50.796;7.228;2023-02-07T10:58:01;4.40;99.90
6581;DHT22;3324;50.796;7.228;2023-02-07T11:00:28;4.50;99.90
6581;DHT22;3324;50.796;7.228;2023-02-07T11:03:03;4.60;99.90
6581;DHT22;3324;50.796;7.228;2023-02-07T11:05:32;4.70;99.90
6581;DHT22;3324;50.796;7.228;2023-02-07T11:41:59;5.50;99.90
6581;DHT22;3324;50.796;7.228;2023-02-07T11:44:27;5.50;99.90
6581;DHT22;3324;50.796;7.228;2023-02-07T11:46:57;5.50;99.90
6581;DHT22;3324;50.796;7.228;2023-02-07T11:49:44;5.60;99.90
6581;DHT22;3324;50.796;7.228;2023-02-07T11:52:11;5.60;99.90
6581;DHT22;3324;50.796;7.228;2023-02-07T11:54:39;5.60;99.90
6581;DHT22;3324;50.796;7.228;2023-02-07T11:57:13;5.70;99.90
6581;DHT22;3324;50.796;7.228;2023-02-07T12:02:22;5.60;99.90
6581;DHT22;3324;50.796;7.228;2023-02-07T12:04:48;5.60;99.90
6581;DHT22;3324;50.796;7.228;2023-02-07T12:07:45;5.70;99.90
6581;DHT22;3324;50.796;7.228;2023-02-07T12:10:18;5.80;99.90
6581;DHT22;3324;50.796;7.228;2023-02-07T12:20:39;6.00;99.90
6581;DHT22;3324;50.796;7.228;2023-02-07T12:23:14;6.10;99.90
6581;DHT22;3324;50.796;7.228;2023-02-07T12:25:58;6.20;99.40
6581;DHT22;3324;50.796;7.228;2023-02-07T12:31:26;6.30;99.00
6581;DHT22;3324;50.796;7.228;2023-02-07T12:33:57;6.40;98.00
6581;DHT22;3324;50.796;7.228;2023-02-07T12:36:30;6.50;99.40
6581;DHT22;3324;50.796;7.228;2023-02-07T12:39:08;6.60;99.00
6581;DHT22;3324;50.796;7.228;2023-02-07T12:41:41;6.70;99.20
